sensor_id;sensor_type;location;lat;lon;timestamp;P1;durP1;ratioP1;P2;durP2;ratioP2
74926;SDS011;63488;48.092;-1.640;2023-09-08T00:00:08;9.05;;;5.63;;
74926;SDS011;63488;48.092;-1.640;2023-09-08T00:02:34;13.45;;;5.45;;
74926;SDS011;63488;48.092;-1.640;2023-09-08T00:04:59;12.25;;;5.63;;
74926;SDS011;63488;48.092;-1.640;2023-09-08T00:07:25;14.98;;;5.85;;
74926;SDS011;63488;48.092;-1.640;2023-09-08T00:09:50;12.80;;;5.80;;
74926;SDS011;63488;48.092;-1.640;2023-09-08T00:12:16;10.75;;;5.63;;
74926;SDS011;63488;48.092;-1.640;2023-09-08T00:14:41;12.63;;;5.50;;
74926;SDS011;63488;48.092;-1.640;2023-09-08T00:17:07;13.93;;;5.75;;
74926;SDS011;63488;48.092;-1.640;2023-09-08T00:19:32;8.55;;;5.15;;
74926;SDS011;63488;48.092;-1.640;2023-09-08T00:21:58;13.73;;;6.07;;
74926;SDS011;63488;48.092;-1.640;2023-09-08T00:24:23;15.95;;;5.75;;
74926;SDS011;63488;48.092;-1.640;2023-09-08T00:26:49;13.60;;;6.05;;
74926;SDS011;63488;48.092;-1.640;2023-09-08T00:29:14;14.93;;;5.65;;
74926;SDS011;63488;48.092;-1.640;2023-09-08T00:31:39;12.38;;;6.22;;
74926;SDS011;63488;48.092;-1.640;2023-09-08T00:34:05;10.95;;;5.63;;
74926;SDS011;63488;48.092;-1.640;2023-09-08T00:36:31;14.68;;;5.70;;
74926;SDS011;63488;48.092;-1.640;2023-09-08T00:38:56;10.75;;;5.57;;
74926;SDS011;63488;48.092;-1.640;2023-09-08T00:41:22;12.77;;;5.80;;
74926;SDS011;63488;48.092;-1.640;2023-09-08T00:43:49;11.95;;;5.85;;
74926;SDS011;63488;48.092;-1.640;2023-09-08T00:46:14;13.20;;;5.95;;
74926;SDS011;63488;48.092;-1.640;2023-09-08T00:48:39;10.85;;;5.93;;
74926;SDS011;63488;48.092;-1.640;2023-09-08T00:51:05;11.13;;;6.07;;
74926;SDS011;63488;48.092;-1.640;2023-09-08T00:53:32;9.60;;;5.45;;
74926;SDS011;63488;48.092;-1.640;2023-09-08T00:55:58;9.55;;;5.63;;
74926;SDS011;63488;48.092;-1.640;2023-09-08T00:58:24;13.43;;;6.43;;
74926;SDS011;63488;48.092;-1.640;2023-09-08T01:00:49;14.25;;;6.20;;
74926;SDS011;63488;48.092;-1.640;2023-09-08T01:03:15;12.18;;;5.63;;
74926;SDS011;63488;48.092;-1.640;2023-09-08T01:05:40;10.23;;;5.38;;
74926;SDS011;63488;48.092;-1.640;2023-09-08T01:08:06;11.65;;;6.15;;
74926;SDS011;63488;48.092;-1.640;2023-09-08T01:10:32;11.02;;;5.45;;
74926;SDS011;63488;48.092;-1.640;2023-09-08T01:12:57;10.88;;;5.90;;
74926;SDS011;63488;48.092;-1.640;2023-09-08T01:15:22;11.27;;;6.28;;
74926;SDS011;63488;48.092;-1.640;2023-09-08T01:17:48;10.23;;;5.45;;
74926;SDS011;63488;48.092;-1.640;2023-09-08T01:20:20;11.75;;;5.82;;
74926;SDS011;63488;48.092;-1.640;2023-09-08T01:25:31;12.07;;;6.28;;
74926;SDS011;63488;48.092;-1.640;2023-09-08T01:27:58;17.80;;;6.25;;
74926;SDS011;63488;48.092;-1.640;2023-09-08T01:30:26;13.68;;;6.85;;
74926;SDS011;63488;48.092;-1.640;2023-09-08T01:32:53;10.15;;;6.00;;
74926;SDS011;63488;48.092;-1.640;2023-09-08T01:35:19;11.65;;;5.90;;
74926;SDS011;63488;48.092;-1.640;2023-09-08T01:37:45;13.02;;;6.10;;
74926;SDS011;63488;48.092;-1.640;2023-09-08T01:40:11;13.75;;;5.95;;
74926;SDS011;63488;48.092;-1.640;2023-09-08T01:42:37;11.00;;;5.85;;
74926;SDS011;63488;48.092;-1.640;2023-09-08T01:45:03;15.85;;;6.20;;
74926;SDS011;63488;48.092;-1.640;2023-09-08T01:47:29;10.57;;;5.57;;
74926;SDS011;63488;48.092;-1.640;2023-09-08T01:49:54;11.10;;;5.57;;
74926;SDS011;63488;48.092;-1.640;2023-09-08T01:52:19;14.02;;;5.55;;
74926;SDS011;63488;48.092;-1.640;2023-09-08T01:54:45;11.00;;;5.38;;
74926;SDS011;63488;48.092;-1.640;2023-09-08T01:57:10;12.00;;;5.75;;
74926;SDS011;63488;48.092;-1.640;2023-09-08T01:59:36;15.00;;;5.82;;
74926;SDS011;63488;48.092;-1.640;2023-09-08T02:02:02;11.23;;;5.90;;
74926;SDS011;63488;48.092;-1.640;2023-09-08T02:04:27;10.65;;;5.28;;
74926;SDS011;63488;48.092;-1.640;2023-09-08T02:06:53;9.38;;;5.70;;
74926;SDS011;63488;48.092;-1.640;2023-09-08T02:09:18;10.98;;;5.72;;
74926;SDS011;63488;48.092;-1.640;2023-09-08T02:11:43;9.35;;;5.40;;
74926;SDS011;63488;48.092;-1.640;2023-09-08T02:14:09;17.00;;;5.82;;
74926;SDS011;63488;48.092;-1.640;2023-09-08T02:16:34;11.23;;;5.32;;
74926;SDS011;63488;48.092;-1.640;2023-09-08T02:18:59;11.43;;;6.10;;
74926;SDS011;63488;48.092;-1.640;2023-09-08T02:21:25;11.23;;;5.30;;
74926;SDS011;63488;48.092;-1.640;2023-09-08T02:23:50;8.82;;;5.40;;
74926;SDS011;63488;48.092;-1.640;2023-09-08T02:26:15;12.43;;;5.78;;
74926;SDS011;63488;48.092;-1.640;2023-09-08T02:28:41;9.60;;;5.68;;
74926;SDS011;63488;48.092;-1.640;2023-09-08T02:31:06;11.15;;;5.72;;
74926;SDS011;63488;48.092;-1.640;2023-09-08T02:33:32;10.80;;;5.78;;
74926;SDS011;63488;48.092;-1.640;2023-09-08T02:36:04;11.07;;;5.78;;
74926;SDS011;63488;48.092;-1.640;2023-09-08T02:38:30;12.48;;;5.45;;
74926;SDS011;63488;48.092;-1.640;2023-09-08T02:40:55;13.90;;;5.13;;
74926;SDS011;63488;48.092;-1.640;2023-09-08T02:43:21;10.65;;;5.60;;
74926;SDS011;63488;48.092;-1.640;2023-09-08T02:45:46;7.82;;;5.03;;
74926;SDS011;63488;48.092;-1.640;2023-09-08T02:48:12;11.73;;;5.53;;
74926;SDS011;63488;48.092;-1.640;2023-09-08T02:50:37;10.55;;;6.20;;
74926;SDS011;63488;48.092;-1.640;2023-09-08T02:53:03;11.38;;;5.53;;
74926;SDS011;63488;48.092;-1.640;2023-09-08T02:55:28;12.57;;;6.53;;
74926;SDS011;63488;48.092;-1.640;2023-09-08T02:57:54;9.82;;;5.57;;
74926;SDS011;63488;48.092;-1.640;2023-09-08T03:00:20;11.57;;;5.75;;
74926;SDS011;63488;48.092;-1.640;2023-09-08T03:02:45;9.55;;;5.90;;
74926;SDS011;63488;48.092;-1.640;2023-09-08T03:05:11;8.15;;;5.80;;
74926;SDS011;63488;48.092;-1.640;2023-09-08T03:07:36;12.95;;;6.30;;
74926;SDS011;63488;48.092;-1.640;2023-09-08T03:10:02;18.88;;;6.32;;
74926;SDS011;63488;48.092;-1.640;2023-09-08T03:12:28;12.50;;;6.60;;
74926;SDS011;63488;48.092;-1.640;2023-09-08T03:14:54;12.82;;;6.50;;
74926;SDS011;63488;48.092;-1.640;2023-09-08T03:17:19;11.48;;;6.55;;
74926;SDS011;63488;48.092;-1.640;2023-09-08T03:19:45;13.48;;;6.82;;
74926;SDS011;63488;48.092;-1.640;2023-09-08T03:22:10;12.52;;;6.53;;
74926;SDS011;63488;48.092;-1.640;2023-09-08T03:24:36;12.20;;;5.82;;
74926;SDS011;63488;48.092;-1.640;2023-09-08T03:27:01;10.98;;;5.57;;
74926;SDS011;63488;48.092;-1.640;2023-09-08T03:29:26;7.80;;;5.45;;
74926;SDS011;63488;48.092;-1.640;2023-09-08T03:31:52;17.02;;;6.60;;
74926;SDS011;63488;48.092;-1.640;2023-09-08T03:34:17;14.48;;;5.97;;
74926;SDS011;63488;48.092;-1.640;2023-09-08T03:36:45;11.07;;;5.95;;
74926;SDS011;63488;48.092;-1.640;2023-09-08T03:39:10;13.57;;;6.90;;
74926;SDS011;63488;48.092;-1.640;2023-09-08T03:41:36;11.73;;;5.85;;
74926;SDS011;63488;48.092;-1.640;2023-09-08T03:44:01;9.45;;;6.05;;
74926;SDS011;63488;48.092;-1.640;2023-09-08T03:46:27;12.93;;;6.03;;
74926;SDS011;63488;48.092;-1.640;2023-09-08T03:48:52;11.23;;;5.88;;
74926;SDS011;63488;48.092;-1.640;2023-09-08T03:51:23;11.70;;;5.90;;
74926;SDS011;63488;48.092;-1.640;2023-09-08T03:53:48;8.45;;;5.70;;
74926;SDS011;63488;48.092;-1.640;2023-09-08T03:56:14;14.00;;;5.97;;
74926;SDS011;63488;48.092;-1.640;2023-09-08T03:58:39;13.38;;;6.03;;
74926;SDS011;63488;48.092;-1.640;2023-09-08T04:01:04;11.18;;;5.78;;
74926;SDS011;63488;48.092;-1.640;2023-09-08T04:03:30;11.98;;;5.63;;
74926;SDS011;63488;48.092;-1.640;2023-09-08T04:05:55;16.58;;;6.18;;
74926;SDS011;63488;48.092;-1.640;2023-09-08T04:08:21;12.80;;;5.90;;
74926;SDS011;63488;48.092;-1.640;2023-09-08T04:10:46;10.20;;;5.80;;
74926;SDS011;63488;48.092;-1.640;2023-09-08T04:13:11;10.35;;;5.60;;
74926;SDS011;63488;48.092;-1.640;2023-09-08T04:15:37;10.80;;;5.97;;
74926;SDS011;63488;48.092;-1.640;2023-09-08T04:18:02;13.18;;;6.15;;
74926;SDS011;63488;48.092;-1.640;2023-09-08T04:20:28;12.80;;;5.85;;
74926;SDS011;63488;48.092;-1.640;2023-09-08T04:22:53;10.40;;;5.40;;
74926;SDS011;63488;48.092;-1.640;2023-09-08T04:25:18;9.85;;;5.82;;
74926;SDS011;63488;48.092;-1.640;2023-09-08T04:27:44;11.93;;;5.90;;
74926;SDS011;63488;48.092;-1.640;2023-09-08T04:30:10;12.15;;;5.80;;
74926;SDS011;63488;48.092;-1.640;2023-09-08T04:32:35;12.00;;;6.40;;
74926;SDS011;63488;48.092;-1.640;2023-09-08T04:35:02;10.50;;;6.28;;
74926;SDS011;63488;48.092;-1.640;2023-09-08T04:37:28;11.57;;;6.22;;
74926;SDS011;63488;48.092;-1.640;2023-09-08T04:39:55;11.13;;;6.00;;
74926;SDS011;63488;48.092;-1.640;2023-09-08T04:42:20;8.45;;;5.93;;
74926;SDS011;63488;48.092;-1.640;2023-09-08T04:44:46;11.57;;;5.90;;
74926;SDS011;63488;48.092;-1.640;2023-09-08T04:47:11;11.90;;;6.15;;
74926;SDS011;63488;48.092;-1.640;2023-09-08T04:49:37;16.33;;;6.20;;
74926;SDS011;63488;48.092;-1.640;2023-09-08T04:52:02;11.02;;;6.30;;
74926;SDS011;63488;48.092;-1.640;2023-09-08T04:54:28;9.48;;;6.43;;
74926;SDS011;63488;48.092;-1.640;2023-09-08T04:56:53;16.75;;;6.18;;
74926;SDS011;63488;48.092;-1.640;2023-09-08T04:59:19;10.07;;;6.00;;
74926;SDS011;63488;48.092;-1.640;2023-09-08T05:01:45;10.23;;;6.55;;
74926;SDS011;63488;48.092;-1.640;2023-09-08T05:04:10;12.82;;;6.20;;
74926;SDS011;63488;48.092;-1.640;2023-09-08T05:06:36;10.00;;;6.00;;
74926;SDS011;63488;48.092;-1.640;2023-09-08T05:09:01;9.35;;;6.78;;
74926;SDS011;63488;48.092;-1.640;2023-09-08T05:11:27;11.18;;;5.70;;
74926;SDS011;63488;48.092;-1.640;2023-09-08T05:13:52;8.85;;;5.88;;
74926;SDS011;63488;48.092;-1.640;2023-09-08T05:16:18;8.52;;;6.13;;
74926;SDS011;63488;48.092;-1.640;2023-09-08T05:18:50;9.85;;;5.47;;
74926;SDS011;63488;48.092;-1.640;2023-09-08T05:21:15;12.65;;;6.25;;
74926;SDS011;63488;48.092;-1.640;2023-09-08T05:23:41;9.50;;;5.65;;
74926;SDS011;63488;48.092;-1.640;2023-09-08T05:26:06;12.68;;;6.03;;
74926;SDS011;63488;48.092;-1.640;2023-09-08T05:28:31;11.00;;;5.80;;
74926;SDS011;63488;48.092;-1.640;2023-09-08T05:30:57;12.65;;;6.00;;
74926;SDS011;63488;48.092;-1.640;2023-09-08T05:33:22;10.00;;;5.88;;
74926;SDS011;63488;48.092;-1.640;2023-09-08T05:35:48;10.85;;;6.22;;
74926;SDS011;63488;48.092;-1.640;2023-09-08T05:38:13;12.02;;;6.50;;
74926;SDS011;63488;48.092;-1.640;2023-09-08T05:40:39;13.15;;;6.78;;
74926;SDS011;63488;48.092;-1.640;2023-09-08T05:43:04;12.15;;;6.13;;
74926;SDS011;63488;48.092;-1.640;2023-09-08T05:45:33;10.93;;;5.57;;
74926;SDS011;63488;48.092;-1.640;2023-09-08T05:47:59;15.68;;;5.95;;
74926;SDS011;63488;48.092;-1.640;2023-09-08T05:50:24;10.60;;;6.03;;
74926;SDS011;63488;48.092;-1.640;2023-09-08T05:52:50;11.45;;;5.88;;
74926;SDS011;63488;48.092;-1.640;2023-09-08T05:55:16;16.05;;;7.07;;
74926;SDS011;63488;48.092;-1.640;2023-09-08T05:57:41;11.32;;;6.65;;
74926;SDS011;63488;48.092;-1.640;2023-09-08T06:00:07;15.70;;;6.80;;
74926;SDS011;63488;48.092;-1.640;2023-09-08T06:02:32;13.63;;;7.32;;
74926;SDS011;63488;48.092;-1.640;2023-09-08T06:04:58;14.05;;;6.82;;
74926;SDS011;63488;48.092;-1.640;2023-09-08T06:07:23;12.35;;;6.80;;
74926;SDS011;63488;48.092;-1.640;2023-09-08T06:09:48;16.15;;;6.53;;
74926;SDS011;63488;48.092;-1.640;2023-09-08T06:12:14;13.23;;;7.07;;
74926;SDS011;63488;48.092;-1.640;2023-09-08T06:14:39;10.32;;;6.78;;
74926;SDS011;63488;48.092;-1.640;2023-09-08T06:17:04;14.77;;;7.60;;
74926;SDS011;63488;48.092;-1.640;2023-09-08T06:19:30;13.73;;;6.35;;
74926;SDS011;63488;48.092;-1.640;2023-09-08T06:21:55;20.65;;;7.35;;
74926;SDS011;63488;48.092;-1.640;2023-09-08T06:24:20;22.70;;;7.35;;
74926;SDS011;63488;48.092;-1.640;2023-09-08T06:26:46;13.88;;;7.47;;
74926;SDS011;63488;48.092;-1.640;2023-09-08T06:29:11;12.18;;;6.60;;
74926;SDS011;63488;48.092;-1.640;2023-09-08T06:31:37;14.70;;;7.20;;
74926;SDS011;63488;48.092;-1.640;2023-09-08T06:34:02;12.98;;;7.22;;
74926;SDS011;63488;48.092;-1.640;2023-09-08T06:36:27;16.10;;;7.43;;
74926;SDS011;63488;48.092;-1.640;2023-09-08T06:38:53;17.60;;;7.00;;
74926;SDS011;63488;48.092;-1.640;2023-09-08T06:41:18;18.55;;;7.82;;
74926;SDS011;63488;48.092;-1.640;2023-09-08T06:43:44;11.30;;;7.20;;
74926;SDS011;63488;48.092;-1.640;2023-09-08T06:46:09;16.40;;;8.43;;
74926;SDS011;63488;48.092;-1.640;2023-09-08T06:48:34;13.68;;;7.80;;
74926;SDS011;63488;48.092;-1.640;2023-09-08T06:51:00;13.98;;;7.57;;
74926;SDS011;63488;48.092;-1.640;2023-09-08T06:53:25;19.48;;;8.23;;
74926;SDS011;63488;48.092;-1.640;2023-09-08T06:55:51;19.60;;;7.72;;
74926;SDS011;63488;48.092;-1.640;2023-09-08T06:58:16;19.48;;;8.18;;
74926;SDS011;63488;48.092;-1.640;2023-09-08T07:00:42;12.00;;;6.90;;
74926;SDS011;63488;48.092;-1.640;2023-09-08T07:03:07;16.67;;;8.68;;
74926;SDS011;63488;48.092;-1.640;2023-09-08T07:05:33;14.85;;;8.15;;
74926;SDS011;63488;48.092;-1.640;2023-09-08T07:07:59;15.88;;;8.48;;
74926;SDS011;63488;48.092;-1.640;2023-09-08T07:10:24;14.02;;;8.25;;
74926;SDS011;63488;48.092;-1.640;2023-09-08T07:12:50;19.00;;;8.02;;
74926;SDS011;63488;48.092;-1.640;2023-09-08T07:15:15;16.63;;;7.80;;
74926;SDS011;63488;48.092;-1.640;2023-09-08T07:17:40;14.77;;;8.20;;
74926;SDS011;63488;48.092;-1.640;2023-09-08T07:20:07;16.42;;;7.78;;
74926;SDS011;63488;48.092;-1.640;2023-09-08T07:22:32;17.13;;;8.40;;
74926;SDS011;63488;48.092;-1.640;2023-09-08T07:24:58;15.82;;;8.43;;
74926;SDS011;63488;48.092;-1.640;2023-09-08T07:27:23;17.30;;;8.73;;
74926;SDS011;63488;48.092;-1.640;2023-09-08T07:29:48;17.00;;;9.02;;
74926;SDS011;63488;48.092;-1.640;2023-09-08T07:32:15;16.48;;;8.80;;
74926;SDS011;63488;48.092;-1.640;2023-09-08T07:34:40;20.70;;;9.10;;
74926;SDS011;63488;48.092;-1.640;2023-09-08T07:37:05;15.25;;;9.38;;
74926;SDS011;63488;48.092;-1.640;2023-09-08T07:39:31;17.58;;;9.90;;
74926;SDS011;63488;48.092;-1.640;2023-09-08T07:41:58;18.58;;;9.23;;
74926;SDS011;63488;48.092;-1.640;2023-09-08T07:44:23;16.10;;;9.48;;
74926;SDS011;63488;48.092;-1.640;2023-09-08T07:46:48;22.30;;;9.52;;
74926;SDS011;63488;48.092;-1.640;2023-09-08T07:49:16;20.73;;;9.70;;
74926;SDS011;63488;48.092;-1.640;2023-09-08T07:51:44;15.05;;;9.27;;
74926;SDS011;63488;48.092;-1.640;2023-09-08T07:54:09;18.35;;;8.90;;
74926;SDS011;63488;48.092;-1.640;2023-09-08T07:56:34;17.80;;;8.85;;
74926;SDS011;63488;48.092;-1.640;2023-09-08T07:59:00;15.45;;;8.43;;
74926;SDS011;63488;48.092;-1.640;2023-09-08T08:01:25;17.83;;;8.80;;
74926;SDS011;63488;48.092;-1.640;2023-09-08T08:03:50;17.45;;;8.63;;
74926;SDS011;63488;48.092;-1.640;2023-09-08T08:06:16;16.63;;;9.10;;
74926;SDS011;63488;48.092;-1.640;2023-09-08T08:08:41;18.42;;;8.52;;
74926;SDS011;63488;48.092;-1.640;2023-09-08T08:11:11;17.05;;;8.30;;
74926;SDS011;63488;48.092;-1.640;2023-09-08T08:13:36;18.23;;;8.90;;
74926;SDS011;63488;48.092;-1.640;2023-09-08T08:16:01;22.00;;;9.15;;
74926;SDS011;63488;48.092;-1.640;2023-09-08T08:18:27;16.35;;;7.65;;
74926;SDS011;63488;48.092;-1.640;2023-09-08T08:20:52;17.05;;;7.95;;
74926;SDS011;63488;48.092;-1.640;2023-09-08T08:23:18;15.50;;;7.90;;
74926;SDS011;63488;48.092;-1.640;2023-09-08T08:25:43;13.70;;;7.20;;
74926;SDS011;63488;48.092;-1.640;2023-09-08T08:28:08;9.40;;;7.13;;
74926;SDS011;63488;48.092;-1.640;2023-09-08T08:30:34;14.75;;;7.82;;
74926;SDS011;63488;48.092;-1.640;2023-09-08T08:33:00;13.10;;;8.18;;
74926;SDS011;63488;48.092;-1.640;2023-09-08T08:35:26;16.15;;;7.55;;
74926;SDS011;63488;48.092;-1.640;2023-09-08T08:37:51;14.45;;;7.78;;
74926;SDS011;63488;48.092;-1.640;2023-09-08T08:40:16;12.60;;;8.15;;
74926;SDS011;63488;48.092;-1.640;2023-09-08T08:42:42;11.45;;;7.70;;
74926;SDS011;63488;48.092;-1.640;2023-09-08T08:45:07;11.98;;;7.45;;
74926;SDS011;63488;48.092;-1.640;2023-09-08T08:47:33;16.27;;;8.20;;
74926;SDS011;63488;48.092;-1.640;2023-09-08T08:49:59;16.63;;;8.45;;
74926;SDS011;63488;48.092;-1.640;2023-09-08T08:52:25;22.13;;;7.78;;
74926;SDS011;63488;48.092;-1.640;2023-09-08T08:54:51;17.10;;;7.38;;
74926;SDS011;63488;48.092;-1.640;2023-09-08T08:57:16;16.08;;;8.07;;
74926;SDS011;63488;48.092;-1.640;2023-09-08T08:59:42;14.55;;;7.57;;
74926;SDS011;63488;48.092;-1.640;2023-09-08T09:02:08;17.13;;;7.40;;
74926;SDS011;63488;48.092;-1.640;2023-09-08T09:04:34;18.23;;;8.43;;
74926;SDS011;63488;48.092;-1.640;2023-09-08T09:07:01;19.75;;;7.35;;
74926;SDS011;63488;48.092;-1.640;2023-09-08T09:09:27;17.05;;;7.78;;
74926;SDS011;63488;48.092;-1.640;2023-09-08T09:11:53;17.00;;;7.95;;
74926;SDS011;63488;48.092;-1.640;2023-09-08T09:14:19;19.48;;;8.48;;
74926;SDS011;63488;48.092;-1.640;2023-09-08T09:16:44;17.50;;;7.75;;
74926;SDS011;63488;48.092;-1.640;2023-09-08T09:19:17;17.55;;;8.07;;
74926;SDS011;63488;48.092;-1.640;2023-09-08T09:21:45;16.27;;;7.72;;
74926;SDS011;63488;48.092;-1.640;2023-09-08T09:24:28;19.30;;;8.40;;
74926;SDS011;63488;48.092;-1.640;2023-09-08T09:26:55;15.70;;;8.35;;
74926;SDS011;63488;48.092;-1.640;2023-09-08T09:29:21;14.13;;;7.75;;
74926;SDS011;63488;48.092;-1.640;2023-09-08T09:32:07;17.92;;;7.47;;
74926;SDS011;63488;48.092;-1.640;2023-09-08T09:34:35;17.05;;;7.93;;
74926;SDS011;63488;48.092;-1.640;2023-09-08T09:37:01;15.18;;;8.32;;
74926;SDS011;63488;48.092;-1.640;2023-09-08T09:39:26;13.45;;;6.95;;
74926;SDS011;63488;48.092;-1.640;2023-09-08T09:41:55;20.42;;;7.55;;
74926;SDS011;63488;48.092;-1.640;2023-09-08T09:44:21;17.25;;;6.57;;
74926;SDS011;63488;48.092;-1.640;2023-09-08T09:46:47;23.80;;;7.90;;
74926;SDS011;63488;48.092;-1.640;2023-09-08T09:49:13;11.43;;;7.13;;
74926;SDS011;63488;48.092;-1.640;2023-09-08T09:51:43;16.40;;;7.70;;
74926;SDS011;63488;48.092;-1.640;2023-09-08T09:56:34;14.40;;;7.27;;
74926;SDS011;63488;48.092;-1.640;2023-09-08T09:58:59;17.63;;;7.00;;
74926;SDS011;63488;48.092;-1.640;2023-09-08T10:01:27;17.52;;;6.72;;
74926;SDS011;63488;48.092;-1.640;2023-09-08T10:03:53;17.98;;;6.50;;
74926;SDS011;63488;48.092;-1.640;2023-09-08T10:06:19;13.43;;;5.78;;
74926;SDS011;63488;48.092;-1.640;2023-09-08T10:08:45;14.60;;;7.05;;
74926;SDS011;63488;48.092;-1.640;2023-09-08T10:11:10;14.57;;;6.07;;
74926;SDS011;63488;48.092;-1.640;2023-09-08T10:13:42;14.55;;;6.55;;
74926;SDS011;63488;48.092;-1.640;2023-09-08T10:16:12;14.23;;;6.82;;
74926;SDS011;63488;48.092;-1.640;2023-09-08T10:18:38;10.25;;;6.43;;
74926;SDS011;63488;48.092;-1.640;2023-09-08T10:21:04;15.30;;;6.82;;
74926;SDS011;63488;48.092;-1.640;2023-09-08T10:23:40;17.30;;;7.30;;
74926;SDS011;63488;48.092;-1.640;2023-09-08T10:26:09;14.95;;;6.55;;
74926;SDS011;63488;48.092;-1.640;2023-09-08T10:28:35;17.65;;;6.72;;
74926;SDS011;63488;48.092;-1.640;2023-09-08T10:31:01;11.68;;;6.40;;
74926;SDS011;63488;48.092;-1.640;2023-09-08T10:33:27;13.73;;;7.03;;
74926;SDS011;63488;48.092;-1.640;2023-09-08T10:35:52;13.85;;;6.53;;
74926;SDS011;63488;48.092;-1.640;2023-09-08T10:38:22;9.07;;;6.18;;
74926;SDS011;63488;48.092;-1.640;2023-09-08T10:40:51;15.32;;;6.60;;
74926;SDS011;63488;48.092;-1.640;2023-09-08T10:43:17;11.40;;;6.45;;
74926;SDS011;63488;48.092;-1.640;2023-09-08T10:45:43;13.20;;;6.20;;
74926;SDS011;63488;48.092;-1.640;2023-09-08T10:48:08;12.80;;;5.95;;
74926;SDS011;63488;48.092;-1.640;2023-09-08T10:50:35;11.88;;;6.13;;
74926;SDS011;63488;48.092;-1.640;2023-09-08T10:53:14;10.68;;;5.80;;
74926;SDS011;63488;48.092;-1.640;2023-09-08T10:55:41;18.00;;;6.63;;
74926;SDS011;63488;48.092;-1.640;2023-09-08T10:58:34;14.23;;;5.80;;
74926;SDS011;63488;48.092;-1.640;2023-09-08T11:00:59;13.25;;;6.07;;
74926;SDS011;63488;48.092;-1.640;2023-09-08T11:03:26;11.68;;;5.60;;
74926;SDS011;63488;48.092;-1.640;2023-09-08T11:05:52;11.73;;;5.60;;
74926;SDS011;63488;48.092;-1.640;2023-09-08T11:08:18;11.38;;;5.75;;
74926;SDS011;63488;48.092;-1.640;2023-09-08T11:10:44;10.90;;;5.95;;
74926;SDS011;63488;48.092;-1.640;2023-09-08T11:13:09;13.27;;;5.72;;
74926;SDS011;63488;48.092;-1.640;2023-09-08T11:15:35;12.38;;;6.22;;
74926;SDS011;63488;48.092;-1.640;2023-09-08T11:18:04;18.63;;;6.30;;
74926;SDS011;63488;48.092;-1.640;2023-09-08T11:20:29;12.90;;;5.70;;
74926;SDS011;63488;48.092;-1.640;2023-09-08T11:22:55;13.57;;;5.57;;
74926;SDS011;63488;48.092;-1.640;2023-09-08T11:25:20;15.38;;;5.80;;
74926;SDS011;63488;48.092;-1.640;2023-09-08T11:27:46;16.35;;;5.20;;
74926;SDS011;63488;48.092;-1.640;2023-09-08T11:30:12;22.48;;;5.97;;
74926;SDS011;63488;48.092;-1.640;2023-09-08T11:32:37;12.93;;;5.72;;
74926;SDS011;63488;48.092;-1.640;2023-09-08T11:35:06;11.43;;;5.15;;
74926;SDS011;63488;48.092;-1.640;2023-09-08T11:37:34;16.38;;;5.32;;
74926;SDS011;63488;48.092;-1.640;2023-09-08T11:40:00;21.27;;;5.30;;
74926;SDS011;63488;48.092;-1.640;2023-09-08T11:42:25;11.43;;;4.53;;
74926;SDS011;63488;48.092;-1.640;2023-09-08T11:44:50;10.98;;;3.97;;
74926;SDS011;63488;48.092;-1.640;2023-09-08T11:47:16;9.68;;;4.28;;
74926;SDS011;63488;48.092;-1.640;2023-09-08T11:49:42;11.93;;;4.28;;
74926;SDS011;63488;48.092;-1.640;2023-09-08T11:52:09;9.25;;;4.45;;
74926;SDS011;63488;48.092;-1.640;2023-09-08T11:54:35;7.90;;;4.53;;
74926;SDS011;63488;48.092;-1.640;2023-09-08T11:57:01;16.15;;;5.10;;
74926;SDS011;63488;48.092;-1.640;2023-09-08T11:59:30;11.95;;;4.63;;
74926;SDS011;63488;48.092;-1.640;2023-09-08T12:01:56;12.30;;;5.22;;
74926;SDS011;63488;48.092;-1.640;2023-09-08T12:04:22;12.63;;;5.25;;
74926;SDS011;63488;48.092;-1.640;2023-09-08T12:06:54;15.23;;;5.70;;
74926;SDS011;63488;48.092;-1.640;2023-09-08T12:09:21;13.20;;;5.40;;
74926;SDS011;63488;48.092;-1.640;2023-09-08T12:11:46;13.73;;;5.88;;
74926;SDS011;63488;48.092;-1.640;2023-09-08T12:14:13;14.18;;;6.53;;
74926;SDS011;63488;48.092;-1.640;2023-09-08T12:16:39;12.90;;;5.75;;
74926;SDS011;63488;48.092;-1.640;2023-09-08T12:19:04;11.88;;;5.93;;
74926;SDS011;63488;48.092;-1.640;2023-09-08T12:21:31;11.57;;;5.25;;
74926;SDS011;63488;48.092;-1.640;2023-09-08T12:24:00;13.07;;;6.10;;
74926;SDS011;63488;48.092;-1.640;2023-09-08T12:26:27;14.90;;;5.75;;
74926;SDS011;63488;48.092;-1.640;2023-09-08T12:28:52;15.75;;;5.53;;
74926;SDS011;63488;48.092;-1.640;2023-09-08T12:31:18;11.70;;;5.03;;
74926;SDS011;63488;48.092;-1.640;2023-09-08T12:33:44;14.07;;;5.00;;
74926;SDS011;63488;48.092;-1.640;2023-09-08T12:36:13;15.30;;;5.10;;
74926;SDS011;63488;48.092;-1.640;2023-09-08T12:38:39;13.48;;;4.88;;
74926;SDS011;63488;48.092;-1.640;2023-09-08T12:41:05;13.70;;;5.07;;
74926;SDS011;63488;48.092;-1.640;2023-09-08T12:43:30;9.95;;;4.78;;
74926;SDS011;63488;48.092;-1.640;2023-09-08T12:45:56;17.13;;;4.70;;
74926;SDS011;63488;48.092;-1.640;2023-09-08T12:48:21;10.68;;;4.60;;
74926;SDS011;63488;48.092;-1.640;2023-09-08T12:50:47;16.58;;;5.00;;
74926;SDS011;63488;48.092;-1.640;2023-09-08T12:53:16;16.23;;;4.53;;
74926;SDS011;63488;48.092;-1.640;2023-09-08T12:55:45;14.25;;;5.50;;
74926;SDS011;63488;48.092;-1.640;2023-09-08T12:58:10;13.02;;;4.78;;
74926;SDS011;63488;48.092;-1.640;2023-09-08T13:00:35;12.18;;;4.55;;
74926;SDS011;63488;48.092;-1.640;2023-09-08T13:03:01;12.93;;;5.05;;
74926;SDS011;63488;48.092;-1.640;2023-09-08T13:05:27;11.50;;;4.68;;
74926;SDS011;63488;48.092;-1.640;2023-09-08T13:07:53;9.05;;;4.40;;
74926;SDS011;63488;48.092;-1.640;2023-09-08T13:10:18;9.90;;;4.25;;
74926;SDS011;63488;48.092;-1.640;2023-09-08T13:12:45;16.45;;;4.80;;
74926;SDS011;63488;48.092;-1.640;2023-09-08T13:15:10;10.02;;;4.72;;
74926;SDS011;63488;48.092;-1.640;2023-09-08T13:17:35;11.57;;;4.80;;
74926;SDS011;63488;48.092;-1.640;2023-09-08T13:20:01;13.95;;;4.70;;
74926;SDS011;63488;48.092;-1.640;2023-09-08T13:22:27;12.02;;;4.80;;
74926;SDS011;63488;48.092;-1.640;2023-09-08T13:24:52;16.55;;;4.15;;
74926;SDS011;63488;48.092;-1.640;2023-09-08T13:27:18;13.10;;;5.07;;
74926;SDS011;63488;48.092;-1.640;2023-09-08T13:29:43;12.48;;;4.75;;
74926;SDS011;63488;48.092;-1.640;2023-09-08T13:32:09;10.45;;;4.45;;
74926;SDS011;63488;48.092;-1.640;2023-09-08T13:34:35;10.82;;;4.43;;
74926;SDS011;63488;48.092;-1.640;2023-09-08T13:37:01;11.77;;;4.60;;
74926;SDS011;63488;48.092;-1.640;2023-09-08T13:39:27;11.77;;;4.65;;
74926;SDS011;63488;48.092;-1.640;2023-09-08T13:41:53;18.30;;;4.20;;
74926;SDS011;63488;48.092;-1.640;2023-09-08T13:44:19;12.93;;;4.50;;
74926;SDS011;63488;48.092;-1.640;2023-09-08T13:46:48;11.80;;;4.90;;
74926;SDS011;63488;48.092;-1.640;2023-09-08T13:49:14;9.55;;;4.07;;
74926;SDS011;63488;48.092;-1.640;2023-09-08T13:51:39;18.95;;;4.63;;
74926;SDS011;63488;48.092;-1.640;2023-09-08T13:54:05;9.48;;;4.57;;
74926;SDS011;63488;48.092;-1.640;2023-09-08T13:56:31;12.73;;;4.50;;
74926;SDS011;63488;48.092;-1.640;2023-09-08T13:58:56;11.63;;;4.88;;
74926;SDS011;63488;48.092;-1.640;2023-09-08T14:01:22;10.95;;;4.57;;
74926;SDS011;63488;48.092;-1.640;2023-09-08T14:03:47;9.70;;;4.72;;
74926;SDS011;63488;48.092;-1.640;2023-09-08T14:06:17;11.95;;;4.68;;
74926;SDS011;63488;48.092;-1.640;2023-09-08T14:08:42;10.30;;;4.65;;
74926;SDS011;63488;48.092;-1.640;2023-09-08T14:11:07;17.67;;;5.20;;
74926;SDS011;63488;48.092;-1.640;2023-09-08T14:13:33;8.88;;;4.55;;
74926;SDS011;63488;48.092;-1.640;2023-09-08T14:15:58;12.82;;;5.05;;
74926;SDS011;63488;48.092;-1.640;2023-09-08T14:18:23;15.43;;;4.68;;
74926;SDS011;63488;48.092;-1.640;2023-09-08T14:20:49;9.70;;;4.45;;